Time;durP1;ratioP1;P1;durP2;ratioP2;P2;SDS_P1;SDS_P2;PMS_P1;PMS_P2;Temp;Humidity;BMP_temperature;BMP_pressure;BME280_temperature;BME280_humidity;BME280_pressure;Samples;Min_cycle;Max_cycle;Signal;HPM_P1;HPM_P2
2022/01/22 00:01:15;;;;;;;10.73;1.10;;;5.90;99.90;;;;;;4967026;28;20060;-87
2022/01/22 00:03:41;;;;;;;9.32;1.27;;;5.90;99.90;;;;;;4953793;28;20093;-87
2022/01/22 00:06:07;;;;;;;13.35;1.50;;;5.90;99.90;;;;;;4971764;28;20117;-87
2022/01/22 00:08:33;;;;;;;13.20;1.13;;;5.90;99.90;;;;;;4974081;28;20129;-87
2022/01/22 00:10:58;;;;;;;10.50;1.77;;;6.00;99.90;;;;;;4984134;28;20053;-87
2022/01/22 00:16:09;;;;;;;15.07;1.10;;;6.00;99.90;;;;;;4965839;28;20054;-87
2022/01/22 00:18:35;;;;;;;8.32;1.40;;;6.00;99.90;;;;;;4973878;28;20058;-86
2022/01/22 00:21:01;;;;;;;11.05;1.60;;;6.00;99.90;;;;;;4959898;28;20065;-87
2022/01/22 00:23:28;;;;;;;14.68;1.58;;;6.00;99.90;;;;;;4988941;28;20030;-87
2022/01/22 00:25:55;;;;;;;18.02;1.67;;;6.00;99.90;;;;;;4956444;28;20126;-87
2022/01/22 00:28:21;;;;;;;10.52;0.90;;;6.10;99.90;;;;;;4958123;28;20419;-87
2022/01/22 00:30:47;;;;;;;15.75;1.17;;;6.10;99.90;;;;;;4974078;28;20385;-87
2022/01/22 00:33:15;;;;;;;15.98;1.75;;;6.10;99.90;;;;;;4974338;28;20073;-87
2022/01/22 00:35:42;;;;;;;9.73;1.48;;;6.10;99.90;;;;;;4972554;28;20034;-87
2022/01/22 00:38:08;;;;;;;14.73;2.03;;;6.10;99.90;;;;;;4972190;28;20057;-87
2022/01/22 00:40:33;;;;;;;12.77;0.90;;;6.20;99.90;;;;;;4986297;28;20034;-88
2022/01/22 00:42:59;;;;;;;7.22;1.00;;;6.20;99.90;;;;;;4990008;28;20132;-87
2022/01/22 00:45:25;;;;;;;10.27;1.15;;;6.20;99.90;;;;;;4971741;28;20399;-87
2022/01/22 00:47:51;;;;;;;12.75;1.10;;;6.20;99.90;;;;;;4986237;28;20038;-87
2022/01/22 00:50:19;;;;;;;8.70;0.82;;;6.20;99.90;;;;;;4957357;28;20035;-87
2022/01/22 00:52:46;;;;;;;15.77;2.20;;;6.20;99.90;;;;;;4958589;28;20511;-87
2022/01/22 00:55:13;;;;;;;15.60;1.30;;;6.20;99.90;;;;;;4991751;28;20326;-87
2022/01/22 00:57:39;;;;;;;10.65;1.00;;;6.20;99.90;;;;;;4972249;28;20034;-86
2022/01/22 01:00:07;;;;;;;9.35;1.00;;;6.20;99.90;;;;;;4973750;28;20054;-87
2022/01/22 01:02:34;;;;;;;16.15;1.27;;;6.20;99.90;;;;;;4990872;28;20049;-87
2022/01/22 01:04:59;;;;;;;13.32;1.13;;;6.20;99.90;;;;;;4969331;28;20045;-87
2022/01/22 01:07:25;;;;;;;11.35;1.30;;;6.20;99.90;;;;;;4973346;28;20030;-87
2022/01/22 01:09:50;;;;;;;10.18;0.85;;;6.20;99.90;;;;;;4973421;28;20054;-87
2022/01/22 01:12:16;;;;;;;9.60;1.13;;;6.20;99.90;;;;;;4976666;28;20196;-87
2022/01/22 01:14:49;;;;;;;12.73;1.60;;;6.20;99.90;;;;;;4992401;28;20042;-87
2022/01/22 01:18:06;;;;;;;12.68;2.13;;;6.20;99.90;;;;;;4996264;28;20042;-87
2022/01/22 01:33:54;;;;;;;8.38;1.30;;;6.20;99.90;;;;;;4985709;28;20043;-87
2022/01/22 01:36:19;;;;;;;11.45;1.05;;;6.20;99.90;;;;;;4974450;28;20053;-86
2022/01/22 01:38:51;;;;;;;13.07;1.60;;;6.20;99.90;;;;;;4967537;28;20121;-87
2022/01/22 01:41:26;;;;;;;10.13;1.13;;;6.20;99.90;;;;;;4959578;28;20090;-87
2022/01/22 01:43:51;;;;;;;9.77;0.90;;;6.20;99.90;;;;;;4969072;28;20313;-87
2022/01/22 01:46:17;;;;;;;8.52;0.75;;;6.20;99.90;;;;;;4972733;28;20038;-86
2022/01/22 01:48:43;;;;;;;9.15;0.80;;;6.20;99.90;;;;;;4972741;28;20045;-87
2022/01/22 01:51:10;;;;;;;10.63;0.93;;;6.20;99.90;;;;;;4952165;28;20523;-87
2022/01/22 01:59:23;;;;;;;8.63;0.98;;;6.20;99.90;;;;;;4913695;29;20111;-88
2022/01/22 02:01:50;;;;;;;9.23;1.10;;;6.20;99.90;;;;;;4954084;28;20141;-87
2022/01/22 02:04:16;;;;;;;11.80;1.25;;;6.20;99.90;;;;;;4971616;28;20043;-87
2022/01/22 02:06:42;;;;;;;13.13;1.63;;;6.20;99.90;;;;;;4953049;28;20386;-87
2022/01/22 02:09:09;;;;;;;8.57;2.28;;;6.20;99.90;;;;;;4987149;28;20066;-87
2022/01/22 02:11:36;;;;;;;7.75;1.20;;;6.10;99.90;;;;;;4973047;28;20042;-87
2022/01/22 02:25:00;;;;;;;10.50;0.88;;;6.10;99.90;;;;;;4989522;28;20047;-87
2022/01/22 02:27:26;;;;;;;9.90;1.73;;;6.10;99.90;;;;;;4962117;28;20057;-87
2022/01/22 02:29:51;;;;;;;14.40;1.30;;;6.10;99.90;;;;;;4960233;28;20087;-87
2022/01/22 02:35:06;;;;;;;8.90;0.95;;;6.00;99.90;;;;;;4975096;28;20042;-87
2022/01/22 02:37:37;;;;;;;9.02;0.80;;;6.00;99.90;;;;;;4992024;28;20141;-88
2022/01/22 02:40:20;;;;;;;3.47;0.60;;;6.00;99.90;;;;;;4985346;28;20044;-87
2022/01/22 02:42:46;;;;;;;9.38;1.23;;;6.00;99.90;;;;;;4978042;28;20050;-87
2022/01/22 02:45:17;;;;;;;9.65;0.90;;;6.00;99.90;;;;;;4977906;28;20038;-87
2022/01/22 02:47:43;;;;;;;8.30;0.68;;;5.90;99.90;;;;;;4976662;28;20221;-87
2022/01/22 02:50:09;;;;;;;7.15;0.80;;;5.90;99.90;;;;;;4975988;28;20133;-87
2022/01/22 02:52:35;;;;;;;7.32;0.60;;;5.80;99.90;;;;;;4976797;28;20054;-87
2022/01/22 02:55:01;;;;;;;7.60;1.23;;;5.70;99.90;;;;;;4977387;28;20519;-88
2022/01/22 02:57:27;;;;;;;5.53;1.13;;;5.70;99.90;;;;;;4977036;28;20054;-87
2022/01/22 02:59:53;;;;;;;6.25;0.70;;;5.60;99.90;;;;;;4963734;28;20101;-87
2022/01/22 03:02:18;;;;;;;6.25;0.93;;;5.60;99.90;;;;;;4974127;28;20077;-87
2022/01/22 03:04:44;;;;;;;8.05;0.80;;;5.60;99.90;;;;;;4975182;28;20551;-87
2022/01/22 03:07:10;;;;;;;5.65;0.60;;;5.60;99.90;;;;;;4993356;28;20054;-87
2022/01/22 03:09:44;;;;;;;5.03;0.77;;;5.50;99.90;;;;;;4979013;28;20051;-87
2022/01/22 03:17:36;;;;;;;7.75;1.05;;;5.50;99.90;;;;;;4980138;28;20112;-87
2022/01/22 03:20:22;;;;;;;6.70;0.73;;;5.50;99.90;;;;;;4974935;28;20034;-87
2022/01/22 03:28:02;;;;;;;9.57;1.00;;;5.70;99.90;;;;;;4976458;28;20129;-87
2022/01/22 03:30:28;;;;;;;7.28;0.80;;;5.70;99.90;;;;;;4991505;28;20030;-87
2022/01/22 03:32:55;;;;;;;5.15;0.60;;;5.70;99.90;;;;;;4961191;28;20046;-87
2022/01/22 03:37:52;;;;;;;10.32;1.23;;;5.80;99.90;;;;;;4990090;28;20110;-87
2022/01/22 03:40:21;;;;;;;12.35;0.98;;;5.80;99.90;;;;;;4976199;28;20117;-87
2022/01/22 03:42:47;;;;;;;7.35;0.70;;;5.80;99.90;;;;;;4974745;28;20048;-88
2022/01/22 03:45:14;;;;;;;8.63;0.70;;;5.80;99.90;;;;;;4977643;28;20850;-87
2022/01/22 03:47:41;;;;;;;6.65;0.88;;;5.80;99.90;;;;;;4980170;28;20049;-87
2022/01/22 03:50:08;;;;;;;6.63;0.57;;;5.80;99.90;;;;;;4978226;28;20444;-87
2022/01/22 03:52:34;;;;;;;3.53;0.70;;;5.80;99.90;;;;;;4992953;28;20414;-87
2022/01/22 03:55:00;;;;;;;6.55;1.38;;;5.80;99.90;;;;;;4986106;28;20188;-87
2022/01/22 03:57:26;;;;;;;7.45;0.85;;;5.90;99.90;;;;;;4974051;28;20062;-87
2022/01/22 03:59:53;;;;;;;9.38;1.08;;;5.90;99.90;;;;;;4972677;28;20041;-87
2022/01/22 04:03:02;;;;;;;9.40;1.20;;;5.80;99.90;;;;;;4979512;28;20552;-87
2022/01/22 04:05:18;;;;;;;12.02;0.90;;;5.90;99.90;;;;;;4989527;28;20397;-88
2022/01/22 04:08:09;;;;;;;6.65;1.10;;;5.90;99.90;;;;;;4975184;28;20096;-87
2022/01/22 04:10:35;;;;;;;5.07;0.90;;;5.90;99.90;;;;;;4991490;28;20455;-87
2022/01/22 04:13:05;;;;;;;10.57;0.90;;;5.90;99.90;;;;;;4978362;28;20077;-87
2022/01/22 04:15:35;;;;;;;8.98;0.85;;;5.90;99.90;;;;;;4976435;28;20088;-87
2022/01/22 04:28:53;;;;;;;9.13;0.60;;;5.80;99.90;;;;;;4985706;28;20129;-87
2022/01/22 04:31:19;;;;;;;3.53;0.55;;;5.80;99.90;;;;;;4979344;28;20112;-86
2022/01/22 04:33:46;;;;;;;8.30;0.82;;;5.80;99.90;;;;;;4990729;28;20514;-88
2022/01/22 04:36:11;;;;;;;8.15;1.00;;;5.80;99.90;;;;;;4958988;28;20038;-87
2022/01/22 04:38:38;;;;;;;6.25;0.63;;;5.80;99.90;;;;;;4956671;28;20045;-87
2022/01/22 04:41:05;;;;;;;7.03;0.52;;;5.80;99.90;;;;;;4963734;28;20647;-87
2022/01/22 04:43:32;;;;;;;5.20;0.40;;;5.80;99.90;;;;;;4973634;28;20138;-87
2022/01/22 04:46:17;;;;;;;3.55;0.50;;;5.80;99.90;;;;;;4958829;28;20053;-87
2022/01/22 04:56:43;;;;;;;2.83;0.52;;;5.80;99.90;;;;;;4974528;28;20484;-87
2022/01/22 04:59:09;;;;;;;5.07;0.30;;;5.80;99.90;;;;;;4976040;28;20050;-87
2022/01/22 05:01:34;;;;;;;4.38;0.70;;;5.80;99.90;;;;;;4974263;28;20125;-87
2022/01/22 05:04:00;;;;;;;4.97;0.40;;;5.80;99.90;;;;;;4973750;28;20050;-87
2022/01/22 05:06:26;;;;;;;6.18;0.70;;;5.80;99.90;;;;;;4975498;28;20381;-87
2022/01/22 05:08:53;;;;;;;4.55;0.70;;;5.80;99.90;;;;;;4989985;28;20100;-87
2022/01/22 05:11:19;;;;;;;4.03;0.40;;;5.80;99.90;;;;;;4969214;28;20042;-87
2022/01/22 05:13:46;;;;;;;5.32;0.70;;;5.80;99.90;;;;;;4954947;28;20061;-87
2022/01/22 05:16:12;;;;;;;10.88;0.98;;;5.80;99.90;;;;;;4972200;28;20454;-87
2022/01/22 05:18:45;;;;;;;5.00;0.50;;;5.80;99.90;;;;;;4974617;28;20491;-87
2022/01/22 05:21:14;;;;;;;6.90;0.85;;;5.80;99.90;;;;;;4973128;28;20429;-87
2022/01/22 05:23:42;;;;;;;5.28;0.40;;;5.70;99.90;;;;;;4973557;28;20049;-87
2022/01/22 05:26:23;;;;;;;5.93;0.50;;;5.80;99.90;;;;;;4992437;28;20084;-87
2022/01/22 05:39:09;;;;;;;5.88;0.70;;;5.80;99.90;;;;;;4988460;28;20074;-87
2022/01/22 05:41:35;;;;;;;;;;;5.80;99.90;;;;;;4968908;28;20035;-87
2022/01/22 05:44:00;;;;;;;3.17;0.40;;;5.80;99.90;;;;;;4973257;28;20257;-86
2022/01/22 05:46:26;;;;;;;4.18;0.55;;;5.80;99.90;;;;;;4973065;28;20073;-87
2022/01/22 05:48:52;;;;;;;3.35;0.45;;;5.80;99.90;;;;;;4956191;28;20046;-87
2022/01/22 05:51:18;;;;;;;3.13;0.57;;;5.80;99.90;;;;;;4955236;28;20042;-87
2022/01/22 05:54:13;;;;;;;3.30;0.47;;;5.80;99.90;;;;;;4989564;28;20137;-88
2022/01/22 06:02:18;;;;;;;5.18;0.80;;;5.80;99.90;;;;;;4950939;28;20023;-88
2022/01/22 06:04:45;;;;;;;2.88;0.70;;;5.80;99.90;;;;;;4973791;28;20046;-87
2022/01/22 06:07:12;;;;;;;7.28;0.90;;;5.80;99.90;;;;;;4977257;28;20057;-87
2022/01/22 06:09:50;;;;;;;5.05;0.80;;;5.80;99.90;;;;;;4975647;28;20519;-88
2022/01/22 06:12:18;;;;;;;4.80;0.57;;;5.80;99.90;;;;;;4989548;28;20412;-87
2022/01/22 06:14:43;;;;;;;5.78;0.73;;;5.80;99.90;;;;;;4976989;28;20399;-87
2022/01/22 06:17:09;;;;;;;3.33;0.65;;;5.80;99.90;;;;;;4976760;28;20057;-87
2022/01/22 06:19:35;;;;;;;12.07;1.13;;;5.80;99.90;;;;;;4978712;28;20042;-87
2022/01/22 06:22:01;;;;;;;5.28;0.80;;;5.80;99.90;;;;;;4980764;28;20038;-87
2022/01/22 06:24:26;;;;;;;5.20;0.77;;;5.80;99.90;;;;;;4995222;28;20030;-88
2022/01/22 06:26:52;;;;;;;8.27;1.00;;;5.80;99.90;;;;;;4979605;28;20055;-87
2022/01/22 06:29:19;;;;;;;4.00;0.80;;;5.90;99.90;;;;;;4992645;28;20050;-87
2022/01/22 06:31:44;;;;;;;6.13;1.02;;;5.90;99.90;;;;;;4976951;28;20122;-87
2022/01/22 06:34:10;;;;;;;9.13;1.05;;;5.90;99.90;;;;;;4961279;28;20216;-87
2022/01/22 06:36:36;;;;;;;5.32;1.13;;;5.90;99.90;;;;;;4993468;28;20041;-88
2022/01/22 06:39:14;;;;;;;7.60;1.23;;;5.90;99.90;;;;;;4995089;28;20034;-87
2022/01/22 06:41:44;;;;;;;5.45;0.75;;;5.90;99.90;;;;;;4969478;28;20142;-87
2022/01/22 06:44:18;;;;;;;9.93;1.10;;;5.90;99.90;;;;;;4971841;28;20149;-87
2022/01/22 06:46:47;;;;;;;8.15;1.13;;;5.90;99.90;;;;;;4976952;28;20031;-87
2022/01/22 06:49:13;;;;;;;6.80;1.02;;;5.90;99.90;;;;;;4994532;28;20078;-88
2022/01/22 06:51:39;;;;;;;6.85;1.15;;;5.90;99.90;;;;;;4960713;28;20046;-87
2022/01/22 06:54:06;;;;;;;6.00;0.93;;;5.90;99.90;;;;;;4976812;28;20520;-87
2022/01/22 06:56:33;;;;;;;7.75;0.90;;;5.80;99.90;;;;;;4974550;28;20034;-87
2022/01/22 06:58:59;;;;;;;5.07;0.98;;;5.80;99.90;;;;;;4968784;28;20042;-87
2022/01/22 07:01:26;;;;;;;4.55;1.00;;;5.90;99.90;;;;;;4976474;28;20053;-88
2022/01/22 07:03:53;;;;;;;7.38;0.90;;;5.80;99.90;;;;;;4975346;28;20042;-87
2022/01/22 07:06:20;;;;;;;6.05;0.63;;;5.80;99.90;;;;;;4967479;28;20074;-87
2022/01/22 07:08:45;;;;;;;3.03;0.70;;;5.80;99.90;;;;;;4990450;28;20527;-87
2022/01/22 07:11:11;;;;;;;4.50;0.50;;;5.80;99.90;;;;;;4971281;28;20057;-87
2022/01/22 07:13:37;;;;;;;5.57;0.60;;;5.80;99.90;;;;;;4978708;28;20041;-87
2022/01/22 07:16:04;;;;;;;5.32;0.70;;;5.80;99.90;;;;;;4975457;28;20065;-87
2022/01/22 07:18:30;;;;;;;5.45;0.57;;;5.80;99.90;;;;;;4992085;28;20652;-87
2022/01/22 07:20:56;;;;;;;7.00;0.68;;;5.80;99.90;;;;;;4976877;28;20050;-87
2022/01/22 07:23:56;;;;;;;5.22;0.60;;;5.80;99.90;;;;;;4975656;28;20045;-87
2022/01/22 07:26:17;;;;;;;5.13;0.60;;;5.80;99.90;;;;;;4977907;28;20100;-87
2022/01/22 07:28:43;;;;;;;6.65;0.60;;;5.80;99.90;;;;;;4993042;28;20081;-87
2022/01/22 07:31:09;;;;;;;4.15;0.60;;;5.80;99.90;;;;;;4977476;28;20053;-87
2022/01/22 07:33:35;;;;;;;5.13;0.77;;;5.80;99.90;;;;;;4977206;28;20164;-87
2022/01/22 07:36:03;;;;;;;4.22;1.20;;;5.80;99.90;;;;;;4975322;28;20125;-87
2022/01/22 07:38:28;;;;;;;2.15;0.55;;;5.80;99.90;;;;;;4973212;28;20090;-87
2022/01/22 07:40:54;;;;;;;2.97;0.70;;;5.80;99.90;;;;;;4968376;28;20372;-87
2022/01/22 07:43:20;;;;;;;1.80;0.47;;;5.80;99.90;;;;;;4959833;28;20042;-87
2022/01/22 07:45:46;;;;;;;2.03;0.40;;;5.80;99.90;;;;;;4962604;28;20055;-87
2022/01/22 07:48:11;;;;;;;5.75;0.50;;;5.80;99.90;;;;;;4977453;28;20057;-87
2022/01/22 07:50:37;;;;;;;3.88;0.57;;;5.80;99.90;;;;;;4975840;28;20049;-87
2022/01/22 07:53:03;;;;;;;6.20;0.60;;;5.80;99.90;;;;;;4992065;28;20043;-87
2022/01/22 07:55:29;;;;;;;3.30;0.70;;;5.80;99.90;;;;;;4988459;28;20037;-87
2022/01/22 07:57:55;;;;;;;4.55;0.70;;;5.80;99.90;;;;;;4958709;28;20092;-87
2022/01/22 08:00:21;;;;;;;5.18;0.68;;;5.80;99.90;;;;;;4973669;28;20046;-87
2022/01/22 08:02:47;;;;;;;4.85;0.95;;;5.80;99.90;;;;;;4972299;28;20050;-87
2022/01/22 08:05:13;;;;;;;6.75;0.90;;;5.80;99.90;;;;;;4990583;28;20038;-87
2022/01/22 08:07:43;;;;;;;4.18;0.77;;;5.80;99.90;;;;;;4974536;28;20129;-87
2022/01/22 08:10:10;;;;;;;6.97;0.68;;;5.80;99.90;;;;;;4988070;28;20065;-87
2022/01/22 08:12:37;;;;;;;6.13;1.30;;;5.80;99.90;;;;;;4969419;28;20038;-87
2022/01/22 08:15:08;;;;;;;7.95;0.85;;;5.80;99.90;;;;;;4973675;28;20129;-87
2022/01/22 08:17:34;;;;;;;10.80;0.95;;;5.80;99.90;;;;;;4957486;28;20042;-87
2022/01/22 08:20:00;;;;;;;6.65;0.98;;;5.80;99.90;;;;;;4974218;28;20109;-87
2022/01/22 08:22:25;;;;;;;9.10;1.15;;;5.80;99.90;;;;;;4957470;28;20030;-87
2022/01/22 08:24:53;;;;;;;9.23;1.13;;;5.80;99.90;;;;;;4968649;28;20398;-87
2022/01/22 08:29:48;;;;;;;16.20;1.30;;;5.90;99.90;;;;;;4966778;28;20600;-87
2022/01/22 08:37:27;;;;;;;9.57;1.83;;;5.90;99.90;;;;;;4978982;28;20424;-87
2022/01/22 08:39:52;;;;;;;12.02;1.98;;;5.90;99.90;;;;;;4972692;28;20056;-87
2022/01/22 08:42:19;;;;;;;8.50;0.93;;;5.90;99.90;;;;;;4969702;28;20065;-87
2022/01/22 08:44:44;;;;;;;10.48;1.00;;;5.90;99.90;;;;;;4954616;28;20054;-87
2022/01/22 08:47:10;;;;;;;7.15;1.20;;;5.90;99.90;;;;;;4971551;28;20072;-87
2022/01/22 08:49:36;;;;;;;6.57;1.60;;;5.90;99.90;;;;;;4972926;28;20031;-87
2022/01/22 08:52:04;;;;;;;11.15;1.42;;;5.90;99.90;;;;;;4957076;28;20049;-87
2022/01/22 08:54:30;;;;;;;8.07;0.90;;;6.00;99.90;;;;;;4956679;28;20104;-87
2022/01/22 08:56:55;;;;;;;5.90;0.80;;;6.00;99.90;;;;;;4957348;28;20050;-87
2022/01/22 08:59:21;;;;;;;9.25;1.08;;;6.00;99.90;;;;;;4957013;28;20409;-87
2022/01/22 09:01:48;;;;;;;10.63;1.27;;;6.00;99.90;;;;;;4972433;28;20121;-87
2022/01/22 09:04:15;;;;;;;7.47;0.90;;;6.00;99.90;;;;;;4970452;28;20053;-87
2022/01/22 09:06:40;;;;;;;9.90;1.38;;;6.00;99.90;;;;;;4952944;28;20148;-86
2022/01/22 09:09:09;;;;;;;10.68;2.15;;;6.00;99.90;;;;;;4973709;28;20145;-87
2022/01/22 09:11:36;;;;;;;7.60;1.08;;;6.00;99.90;;;;;;4972587;28;20141;-87
2022/01/22 09:14:04;;;;;;;11.85;1.85;;;6.00;99.90;;;;;;4973879;28;20038;-87
2022/01/22 09:16:30;;;;;;;11.00;1.42;;;6.00;99.90;;;;;;4972610;28;20026;-87
2022/01/22 09:19:00;;;;;;;7.75;0.85;;;6.00;99.90;;;;;;4955041;28;20039;-87
2022/01/22 09:21:26;;;;;;;7.93;1.20;;;6.10;99.90;;;;;;4981753;28;20049;-87
2022/01/22 09:23:51;;;;;;;15.55;1.67;;;6.10;99.90;;;;;;4972573;28;20030;-87
2022/01/22 09:26:19;;;;;;;11.55;4.05;;;6.10;99.90;;;;;;4972907;28;20500;-87
2022/01/22 09:28:46;;;;;;;18.17;4.55;;;6.10;99.90;;;;;;4956115;28;20043;-87
2022/01/22 09:31:12;;;;;;;24.30;6.57;;;6.10;99.90;;;;;;4990360;28;20031;-87
2022/01/22 09:33:39;;;;;;;18.15;5.75;;;6.10;99.90;;;;;;4975581;28;20542;-87
2022/01/22 09:36:05;;;;;;;17.73;5.80;;;6.10;99.90;;;;;;4962377;28;20173;-87
2022/01/22 09:38:31;;;;;;;25.35;9.80;;;6.10;99.90;;;;;;4985398;28;20121;-87
2022/01/22 09:40:56;;;;;;;37.85;14.23;;;6.10;99.90;;;;;;4970408;28;20105;-87
2022/01/22 09:43:23;;;;;;;41.00;14.75;;;6.10;99.90;;;;;;4963019;28;20666;-87
2022/01/22 09:45:49;;;;;;;40.65;16.55;;;6.10;99.90;;;;;;4973229;28;20394;-87
2022/01/22 09:48:15;;;;;;;37.67;13.90;;;6.10;99.90;;;;;;4973390;28;20377;-87
2022/01/22 09:50:41;;;;;;;27.50;10.27;;;6.10;99.90;;;;;;4957525;28;20133;-86
2022/01/22 09:53:06;;;;;;;22.17;3.63;;;6.10;99.90;;;;;;4969465;28;20035;-88
2022/01/22 09:55:32;;;;;;;7.55;1.40;;;6.10;99.90;;;;;;4971399;28;20160;-86
2022/01/22 09:57:58;;;;;;;10.55;1.88;;;6.10;99.90;;;;;;4972411;28;20089;-87
2022/01/22 10:00:25;;;;;;;11.35;2.63;;;6.10;99.90;;;;;;4990998;28;20104;-88
2022/01/22 10:02:54;;;;;;;10.60;1.67;;;6.10;99.90;;;;;;4975196;28;20074;-87
2022/01/22 10:05:43;;;;;;;8.63;1.85;;;6.10;99.90;;;;;;4989597;28;20042;-87
2022/01/22 10:08:27;;;;;;;6.18;1.80;;;6.10;99.90;;;;;;4962055;28;20025;-86
2022/01/22 10:15:39;;;;;;;8.48;1.58;;;6.10;99.90;;;;;;4948784;29;20449;-86
2022/01/22 10:21:37;;;;;;;12.73;3.65;;;6.10;99.90;;;;;;4927793;29;20094;-86
2022/01/22 10:24:40;;;;;;;10.43;2.72;;;6.20;99.90;;;;;;4948408;28;20143;-87
2022/01/22 10:27:26;;;;;;;11.63;2.85;;;6.20;99.90;;;;;;4946777;28;20043;-86
2022/01/22 10:30:07;;;;;;;13.32;2.97;;;6.20;99.90;;;;;;4931967;29;20051;-86
2022/01/22 10:32:48;;;;;;;9.13;2.10;;;6.20;99.90;;;;;;4932949;28;20039;-87
2022/01/22 10:35:48;;;;;;;11.70;3.15;;;6.20;99.90;;;;;;4920121;29;20565;-87
2022/01/22 10:38:44;;;;;;;17.75;3.40;;;6.30;99.90;;;;;;4902740;29;20104;-87
2022/01/22 10:56:34;;;;;;;7.70;1.70;;;6.50;99.90;;;;;;5023103;28;20064;-87
2022/01/22 10:59:25;;;;;;;9.10;1.88;;;6.50;99.90;;;;;;5002898;28;20061;-87
2022/01/22 11:10:00;;;;;;;6.15;1.23;;;6.70;99.90;;;;;;4853297;29;20075;-87
2022/01/22 11:12:36;;;;;;;8.30;1.48;;;6.70;99.90;;;;;;4838830;29;20050;-87
2022/01/22 11:15:05;;;;;;;9.52;1.13;;;6.70;99.90;;;;;;4891987;29;20535;-87
2022/01/22 11:28:39;;;;;;;15.85;1.52;;;6.70;99.90;;;;;;4822810;29;20048;-87
2022/01/22 11:31:06;;;;;;;7.00;1.83;;;6.70;99.90;;;;;;4934884;28;20130;-87
2022/01/22 11:33:33;;;;;;;12.75;1.77;;;6.70;99.90;;;;;;4938575;28;20569;-87
2022/01/22 11:36:16;;;;;;;7.72;2.08;;;6.70;99.90;;;;;;4934222;28;20125;-87
2022/01/22 11:38:50;;;;;;;9.27;2.17;;;6.70;99.90;;;;;;4946197;28;20425;-87
2022/01/22 11:41:20;;;;;;;7.72;1.40;;;6.80;99.90;;;;;;4931511;28;20233;-87
2022/01/22 11:46:29;;;;;;;8.18;2.53;;;6.80;99.90;;;;;;4950461;28;20050;-87
2022/01/22 11:49:10;;;;;;;11.77;3.42;;;6.80;99.90;;;;;;4951390;28;20121;-87
2022/01/22 11:51:37;;;;;;;14.60;3.78;;;6.80;99.90;;;;;;4931355;28;20047;-87
2022/01/22 11:54:03;;;;;;;14.05;3.97;;;6.80;99.90;;;;;;4934068;28;20050;-87
2022/01/22 11:56:49;;;;;;;10.35;3.55;;;6.70;99.90;;;;;;4989997;28;20056;-87
2022/01/22 11:59:19;;;;;;;11.63;3.65;;;6.80;99.90;;;;;;5014261;28;20475;-87
2022/01/22 12:01:51;;;;;;;10.27;2.95;;;6.80;99.90;;;;;;5026536;28;20185;-87
2022/01/22 12:04:29;;;;;;;10.80;2.60;;;6.80;99.90;;;;;;5007287;28;20049;-87
2022/01/22 12:07:01;;;;;;;11.20;1.85;;;6.80;99.90;;;;;;5006897;28;20033;-87
2022/01/22 12:15:41;;;;;;;5.93;1.17;;;6.80;99.90;;;;;;5010217;28;20057;-87
2022/01/22 12:18:14;;;;;;;7.82;1.55;;;6.80;99.90;;;;;;5002457;28;20049;-87
2022/01/22 12:23:16;;;;;;;5.80;1.63;;;6.80;99.90;;;;;;5024348;28;20049;-87
2022/01/22 12:25:42;;;;;;;9.77;1.90;;;6.90;99.90;;;;;;4987439;28;20352;-87
2022/01/22 12:28:31;;;;;;;6.35;1.60;;;6.90;99.90;;;;;;5005916;28;20037;-87
2022/01/22 12:31:06;;;;;;;6.55;1.60;;;6.90;99.90;;;;;;5007507;28;20088;-87
2022/01/22 12:33:34;;;;;;;9.02;1.13;;;6.90;99.90;;;;;;4994687;28;20467;-87
2022/01/22 12:36:20;;;;;;;4.25;0.80;;;7.00;99.90;;;;;;5005494;28;20096;-87
2022/01/22 12:39:01;;;;;;;4.78;0.90;;;6.90;99.90;;;;;;5003189;28;20132;-87
2022/01/22 12:44:11;;;;;;;7.30;0.80;;;7.00;99.90;;;;;;5006054;28;20056;-87
2022/01/22 12:46:37;;;;;;;4.50;0.93;;;7.00;99.90;;;;;;5011941;28;20750;-87
2022/01/22 12:49:05;;;;;;;3.65;1.13;;;6.90;99.90;;;;;;4990558;28;20500;-87
2022/01/22 12:51:32;;;;;;;7.70;1.05;;;7.00;99.90;;;;;;5010051;28;20087;-87
2022/01/22 12:53:58;;;;;;;12.07;0.70;;;7.00;99.90;;;;;;4994320;28;20120;-83
2022/01/22 12:59:09;;;;;;;3.97;0.80;;;7.00;99.90;;;;;;5009238;28;20079;-87
2022/01/22 13:01:37;;;;;;;10.02;1.55;;;7.00;99.90;;;;;;5008671;28;20522;-87
2022/01/22 13:04:45;;;;;;;6.30;1.00;;;7.00;99.90;;;;;;5008724;28;20433;-89
2022/01/22 13:07:41;;;;;;;6.68;1.33;;;7.10;99.90;;;;;;5021844;28;20050;-89
2022/01/22 13:10:08;;;;;;;8.30;2.15;;;7.10;99.90;;;;;;5006686;28;20041;-86
2022/01/22 13:12:36;;;;;;;9.07;1.50;;;7.10;99.90;;;;;;4988846;28;20037;-87
2022/01/22 13:15:04;;;;;;;6.95;1.10;;;7.10;99.90;;;;;;5006093;28;20119;-87
2022/01/22 13:17:31;;;;;;;9.63;2.05;;;7.10;99.90;;;;;;5004331;28;20037;-87
2022/01/22 13:19:58;;;;;;;29.95;11.32;;;7.20;99.90;;;;;;4988338;28;20046;-87
2022/01/22 13:22:38;;;;;;;26.83;9.95;;;7.10;99.90;;;;;;5003631;28;20080;-86
2022/01/22 13:25:07;;;;;;;12.05;3.58;;;7.10;99.90;;;;;;5007632;28;20041;-86
2022/01/22 13:27:33;;;;;;;13.57;2.85;;;7.10;99.90;;;;;;5005229;28;20049;-87
2022/01/22 13:29:58;;;;;;;12.25;3.78;;;7.10;99.90;;;;;;5017010;28;20502;-86
2022/01/22 13:49:12;;;;;;;9.65;1.20;;;6.90;99.90;;;;;;5008573;28;20491;-87
2022/01/22 13:51:39;;;;;;;7.82;1.73;;;6.90;99.90;;;;;;5006646;28;20161;-86
2022/01/22 13:54:05;;;;;;;9.38;2.85;;;6.90;99.90;;;;;;5006512;28;20052;-88
2022/01/22 13:56:52;;;;;;;13.05;3.15;;;6.90;99.90;;;;;;4992073;28;20107;-88
2022/01/22 13:59:24;;;;;;;12.50;3.05;;;6.90;99.90;;;;;;4985455;28;20073;-88
2022/01/22 14:02:12;;;;;;;7.13;2.03;;;6.90;99.90;;;;;;5006593;28;20046;-88
2022/01/22 14:04:47;;;;;;;7.57;2.28;;;6.90;99.90;;;;;;5004581;28;20100;-88
2022/01/22 14:07:17;;;;;;;8.75;2.10;;;6.90;99.90;;;;;;5005476;28;20045;-87
2022/01/22 14:10:04;;;;;;;11.40;2.15;;;6.90;99.90;;;;;;5020356;28;20057;-87
2022/01/22 14:12:38;;;;;;;7.60;1.95;;;6.90;99.90;;;;;;5026194;28;20037;-87
2022/01/22 14:15:07;;;;;;;8.73;1.90;;;6.90;99.90;;;;;;5009319;28;20120;-87
2022/01/22 14:17:53;;;;;;;9.52;2.28;;;6.90;99.90;;;;;;4994594;28;20068;-87
2022/01/22 14:20:24;;;;;;;10.75;2.50;;;6.90;99.90;;;;;;5008916;28;20041;-87
2022/01/22 14:22:54;;;;;;;13.18;2.60;;;6.90;99.90;;;;;;5013112;28;20037;-86
2022/01/22 14:25:20;;;;;;;9.00;3.08;;;6.90;99.90;;;;;;5008428;28;20057;-85
2022/01/22 14:28:04;;;;;;;18.83;2.97;;;6.90;99.90;;;;;;5006356;28;20045;-85
2022/01/22 14:30:37;;;;;;;12.98;2.70;;;6.90;99.90;;;;;;5024014;28;20086;-86
2022/01/22 14:33:04;;;;;;;10.85;1.92;;;6.90;99.90;;;;;;4998639;28;20394;-86
2022/01/22 14:35:30;;;;;;;4.78;1.10;;;6.90;99.90;;;;;;4993503;28;20045;-85
2022/01/22 14:37:57;;;;;;;5.75;0.82;;;6.90;99.90;;;;;;5009329;28;20509;-85
2022/01/22 14:45:57;;;;;;;23.13;9.43;;;6.90;99.90;;;;;;5024792;28;20778;-85
2022/01/22 14:48:25;;;;;;;24.58;9.23;;;6.90;99.90;;;;;;5012946;28;20360;-85
2022/01/22 14:50:51;;;;;;;11.57;4.13;;;6.90;99.90;;;;;;5011153;28;20064;-85
2022/01/22 14:53:17;;;;;;;7.65;1.98;;;6.90;99.90;;;;;;5004348;28;20050;-85
2022/01/22 14:55:51;;;;;;;6.13;0.80;;;6.90;99.90;;;;;;4988858;28;20131;-85
2022/01/22 14:58:17;;;;;;;7.43;0.80;;;6.80;99.90;;;;;;5007517;28;20140;-85
2022/01/22 15:00:43;;;;;;;10.85;1.58;;;6.80;99.90;;;;;;5004633;28;20129;-84
2022/01/22 15:03:08;;;;;;;10.90;3.00;;;6.80;99.90;;;;;;5003261;28;20124;-85
2022/01/22 15:05:34;;;;;;;16.60;3.78;;;6.70;99.90;;;;;;5005054;28;20524;-85
2022/01/22 15:08:00;;;;;;;14.63;4.50;;;6.70;99.90;;;;;;4994433;28;20410;-85
2022/01/22 15:10:26;;;;;;;12.32;3.33;;;6.70;99.90;;;;;;5026175;28;20053;-85
2022/01/22 15:12:52;;;;;;;11.52;3.85;;;6.70;99.90;;;;;;5011487;28;20036;-85
2022/01/22 15:15:20;;;;;;;12.32;5.05;;;6.60;99.90;;;;;;5004507;28;20045;-85
2022/01/22 15:20:15;;;;;;;18.80;5.75;;;6.60;99.90;;;;;;5008679;28;20075;-85
2022/01/22 15:22:41;;;;;;;15.05;4.75;;;6.60;99.90;;;;;;4991582;28;20414;-85
2022/01/22 15:25:07;;;;;;;18.13;5.53;;;6.60;99.90;;;;;;4986306;28;20125;-85
2022/01/22 15:27:33;;;;;;;16.30;5.47;;;6.60;99.90;;;;;;4986923;28;20415;-85
2022/01/22 15:33:17;;;;;;;12.68;3.67;;;6.60;99.90;;;;;;5004243;28;20033;-85
2022/01/22 15:35:29;;;;;;;10.95;2.08;;;6.60;99.90;;;;;;5020617;28;20077;-85
2022/01/22 15:37:57;;;;;;;7.63;2.05;;;6.60;99.90;;;;;;5004156;28;20046;-85
2022/01/22 15:40:27;;;;;;;5.63;0.65;;;6.50;99.90;;;;;;5007091;28;20128;-85
2022/01/22 15:42:53;;;;;;;5.78;1.10;;;6.50;99.90;;;;;;5008401;28;20095;-85
2022/01/22 15:45:25;;;;;;;7.00;0.93;;;6.50;99.90;;;;;;5010902;28;20514;-85
2022/01/22 15:47:51;;;;;;;4.95;1.70;;;6.40;99.90;;;;;;5008370;28;20442;-85
2022/01/22 15:50:19;;;;;;;5.20;1.30;;;6.40;99.90;;;;;;5008080;28;20045;-85
2022/01/22 15:52:44;;;;;;;4.95;1.00;;;6.40;99.90;;;;;;5009156;28;20038;-85
2022/01/22 15:55:11;;;;;;;3.47;1.30;;;6.40;99.90;;;;;;4993846;28;20405;-85
2022/01/22 15:57:38;;;;;;;7.22;1.42;;;6.30;99.90;;;;;;5008698;28;20056;-85
2022/01/22 16:00:07;;;;;;;7.50;1.60;;;6.30;99.90;;;;;;4994973;28;20045;-85
2022/01/22 16:02:34;;;;;;;5.47;1.20;;;6.30;99.90;;;;;;5005418;28;20045;-85